createdAt,value
2018-12-21T00:01:22.369Z,8.57
2018-12-21T00:05:26.532Z,8.69
2018-12-21T00:09:31.475Z,8.64
2018-12-21T00:13:35.547Z,8.66
2018-12-21T00:17:39.710Z,8.62
2018-12-21T00:21:43.777Z,8.58
2018-12-21T00:25:47.879Z,8.41
2018-12-21T00:29:52.220Z,8.22
2018-12-21T00:34:01.736Z,8.10
2018-12-21T00:38:12.299Z,8.19
2018-12-21T00:46:43.888Z,7.88
2018-12-21T00:50:48.049Z,7.77
2018-12-21T00:54:53.096Z,7.95
2018-12-21T00:58:57.173Z,8.04
2018-12-21T01:03:01.277Z,8.02
2018-12-21T01:07:05.378Z,8.09
2018-12-21T01:11:09.516Z,8.11
2018-12-21T01:15:14.338Z,7.89
2018-12-21T01:19:18.480Z,7.89
2018-12-21T01:23:22.561Z,7.95
2018-12-21T01:27:27.089Z,8.07
2018-12-21T01:31:31.173Z,8.22
2018-12-21T01:35:35.250Z,8.36
2018-12-21T01:39:39.361Z,8.25
2018-12-21T01:43:43.469Z,8.37
2018-12-21T01:47:47.643Z,8.43
2018-12-21T01:51:51.806Z,8.61
2018-12-21T01:55:55.896Z,8.67
2018-12-21T02:00:00.007Z,8.59
2018-12-21T02:04:04.336Z,8.59
2018-12-21T02:08:08.490Z,8.40
2018-12-21T02:12:12.590Z,8.33
2018-12-21T02:16:16.721Z,8.41
2018-12-21T02:20:20.860Z,8.44
2018-12-21T02:24:24.951Z,8.48
2018-12-21T02:28:30.174Z,8.58
2018-12-21T02:32:34.285Z,8.82
2018-12-21T02:36:38.367Z,8.77
2018-12-21T02:40:42.446Z,8.73
2018-12-21T02:44:46.538Z,8.80
2018-12-21T02:48:50.693Z,8.77
2018-12-21T02:52:54.780Z,8.70
2018-12-21T02:56:58.865Z,8.83
2018-12-21T03:01:02.945Z,9.02
2018-12-21T03:05:07.242Z,9.23
2018-12-21T03:09:11.323Z,9.25
2018-12-21T03:13:15.405Z,9.28
2018-12-21T03:17:19.484Z,9.43
2018-12-21T03:21:23.569Z,9.34
2018-12-21T03:25:27.654Z,9.36
2018-12-21T03:29:31.720Z,9.25
2018-12-21T03:33:35.802Z,9.34
2018-12-21T03:37:40.079Z,9.12
2018-12-21T03:41:44.224Z,8.81
2018-12-21T03:45:48.315Z,8.63
2018-12-21T03:49:52.390Z,8.67
2018-12-21T03:53:56.525Z,8.71
2018-12-21T03:58:01.586Z,8.75
2018-12-21T04:02:05.685Z,8.86
2018-12-21T04:06:09.861Z,8.75
2018-12-21T04:10:14.621Z,8.71
2018-12-21T04:14:18.719Z,8.63
2018-12-21T04:18:22.873Z,8.77
2018-12-21T04:22:34.058Z,8.68
2018-12-21T04:26:33.110Z,8.73
2018-12-21T04:30:37.351Z,8.90
2018-12-21T04:34:41.463Z,8.63
2018-12-21T04:38:45.673Z,8.68
2018-12-21T04:42:49.753Z,8.60
2018-12-21T04:46:53.968Z,8.52
2018-12-21T04:50:58.126Z,8.66
2018-12-21T04:55:02.328Z,8.77
2018-12-21T04:59:06.410Z,8.83
2018-12-21T05:03:10.644Z,8.78
2018-12-21T05:07:14.727Z,8.57
2018-12-21T05:11:18.816Z,8.59
2018-12-21T05:15:23.006Z,8.66
2018-12-21T05:19:27.116Z,8.81
2018-12-21T05:23:31.188Z,8.80
2018-12-21T05:27:35.277Z,8.95
2018-12-21T05:31:39.363Z,9.17
2018-12-21T05:35:43.437Z,9.34
2018-12-21T05:39:47.496Z,9.62
2018-12-21T05:43:51.766Z,9.41
2018-12-21T05:47:56.229Z,9.17
2018-12-21T05:52:00.414Z,9.14
2018-12-21T05:56:04.540Z,9.24
2018-12-21T06:00:09.628Z,9.30
2018-12-21T06:04:13.715Z,9.37
2018-12-21T06:08:17.785Z,9.24
2018-12-21T06:12:21.876Z,9.17
2018-12-21T06:16:47.786Z,8.96
2018-12-21T06:20:52.134Z,8.97
2018-12-21T06:29:48.654Z,8.93
2018-12-21T06:33:52.733Z,8.95
2018-12-21T06:42:17.457Z,8.64
2018-12-21T06:46:27.174Z,8.67
2018-12-21T06:50:31.307Z,8.64
2018-12-21T06:54:35.400Z,8.70
2018-12-21T07:03:03.345Z,8.47
2018-12-21T07:07:07.482Z,8.32
2018-12-21T07:11:11.578Z,8.28
2018-12-21T07:19:41.749Z,8.07
2018-12-21T07:23:45.994Z,8.13
2018-12-21T07:27:51.049Z,7.93
2018-12-21T07:31:55.574Z,7.86
2018-12-21T07:36:08.124Z,7.89
2018-12-21T07:40:09.249Z,7.79
2018-12-21T07:44:13.352Z,7.84
2018-12-21T07:48:17.410Z,7.78
2018-12-21T07:52:21.501Z,7.85
2018-12-21T07:56:25.615Z,7.90
2018-12-21T08:00:29.741Z,7.91
2018-12-21T08:04:33.830Z,7.94
2018-12-21T08:08:37.909Z,7.91
2018-12-21T08:12:42.005Z,7.96
2018-12-21T08:16:46.109Z,7.97
2018-12-21T08:20:50.223Z,7.91
2018-12-21T08:24:54.361Z,7.93
2018-12-21T08:28:58.449Z,7.88
2018-12-21T08:33:02.541Z,7.83
2018-12-21T08:37:06.624Z,7.78
2018-12-21T08:41:10.841Z,7.77
2018-12-21T08:45:14.982Z,7.69
2018-12-21T08:49:19.074Z,7.66
2018-12-21T08:53:23.150Z,7.65
2018-12-21T08:57:27.214Z,7.70
2018-12-21T09:01:31.300Z,7.83
2018-12-21T09:05:35.373Z,7.92
2018-12-21T09:09:39.514Z,7.87
2018-12-21T09:13:43.601Z,7.90
2018-12-21T09:17:47.755Z,7.93
2018-12-21T09:21:52.010Z,7.93
2018-12-21T09:25:56.138Z,8.12
2018-12-21T09:30:00.671Z,8.23
2018-12-21T09:34:04.780Z,8.30
2018-12-21T09:38:08.879Z,8.37
2018-12-21T09:42:12.951Z,8.31
2018-12-21T09:46:17.236Z,8.24
2018-12-21T09:50:21.381Z,8.35
2018-12-21T09:54:25.473Z,8.39
2018-12-21T09:58:29.631Z,8.34
2018-12-21T10:02:35.891Z,8.37
2018-12-21T10:06:41.117Z,8.58
2018-12-21T10:10:45.202Z,8.51
2018-12-21T10:14:49.293Z,8.52
2018-12-21T10:18:53.393Z,8.55
2018-12-21T10:22:57.498Z,8.59
2018-12-21T10:27:01.593Z,8.71
2018-12-21T10:31:05.667Z,8.83
2018-12-21T10:35:09.766Z,8.86
2018-12-21T10:39:13.825Z,8.96
2018-12-21T10:43:17.918Z,8.89
2018-12-21T10:47:22.061Z,8.94
2018-12-21T10:51:26.157Z,8.99
2018-12-21T10:55:30.283Z,8.98
2018-12-21T10:59:34.381Z,9.02
2018-12-21T11:03:38.494Z,9.07
2018-12-21T11:07:42.589Z,9.21
2018-12-21T11:11:46.678Z,9.28
2018-12-21T11:15:50.769Z,9.33
2018-12-21T11:19:54.849Z,9.45
2018-12-21T11:23:58.968Z,9.66
2018-12-21T11:28:03.053Z,9.83
2018-12-21T11:32:07.146Z,9.84
2018-12-21T11:36:11.305Z,9.53
2018-12-21T11:40:15.392Z,9.57
2018-12-21T11:44:19.483Z,9.87
2018-12-21T11:48:23.674Z,10.12
2018-12-21T11:52:27.778Z,10.19
2018-12-21T11:56:31.898Z,10.11
2018-12-21T12:00:35.998Z,10.21
2018-12-21T12:04:40.139Z,10.13
2018-12-21T12:08:44.198Z,10.25
2018-12-21T12:12:48.469Z,10.42
2018-12-21T12:16:52.567Z,10.42
2018-12-21T12:25:13.841Z,10.62
2018-12-21T12:29:17.961Z,10.67
2018-12-21T12:33:22.025Z,10.57
2018-12-21T12:37:26.150Z,10.54
2018-12-21T12:41:30.264Z,10.75
2018-12-21T12:45:34.493Z,10.83
2018-12-21T12:49:38.574Z,10.85
2018-12-21T12:53:42.665Z,10.91
2018-12-21T12:57:46.783Z,10.90
2018-12-21T13:01:50.877Z,10.91
2018-12-21T13:05:54.961Z,10.96
2018-12-21T13:09:59.045Z,11.00
2018-12-21T13:14:03.254Z,10.85
2018-12-21T13:18:07.428Z,11.03
2018-12-21T13:22:11.595Z,11.25
2018-12-21T13:26:15.805Z,11.14
2018-12-21T13:30:20.031Z,10.96
2018-12-21T13:34:24.120Z,10.93
2018-12-21T13:38:28.385Z,11.03
2018-12-21T13:42:32.622Z,11.03
2018-12-21T13:46:36.749Z,11.08
2018-12-21T13:50:40.836Z,11.11
2018-12-21T13:54:44.928Z,10.95
2018-12-21T13:58:49.110Z,10.87
2018-12-21T14:02:53.197Z,10.91
2018-12-21T14:06:57.296Z,11.02
2018-12-21T14:11:01.368Z,11.17
2018-12-21T14:15:06.850Z,11.20
2018-12-21T14:19:10.986Z,11.14
2018-12-21T14:23:15.073Z,11.32
2018-12-21T14:27:19.171Z,11.25
2018-12-21T14:31:23.436Z,11.11
2018-12-21T14:35:27.537Z,11.28
2018-12-21T14:39:31.631Z,11.21
2018-12-21T14:43:35.717Z,11.18
2018-12-21T14:47:48.544Z,11.25
2018-12-21T15:00:49.399Z,11.23
2018-12-21T15:09:25.989Z,11.37
2018-12-21T15:13:30.199Z,11.26
2018-12-21T15:17:34.318Z,11.32
2018-12-21T15:21:38.493Z,11.34
2018-12-21T15:25:46.109Z,11.29
2018-12-21T15:29:48.705Z,11.27
2018-12-21T15:33:52.884Z,11.16
2018-12-21T15:37:56.969Z,11.26
2018-12-21T15:42:01.238Z,11.17
2018-12-21T15:46:05.416Z,11.21
2018-12-21T15:50:11.115Z,11.20
2018-12-21T15:54:15.215Z,11.20
2018-12-21T15:58:19.347Z,11.14
2018-12-21T16:02:24.031Z,11.25
2018-12-21T16:06:29.110Z,11.26
2018-12-21T16:10:34.055Z,11.49
2018-12-21T16:14:38.196Z,11.37
2018-12-21T16:18:42.309Z,11.34
2018-12-21T16:22:46.416Z,11.31
2018-12-21T16:26:50.509Z,11.32
2018-12-21T16:30:54.604Z,11.32
2018-12-21T16:34:58.738Z,11.38
2018-12-21T16:39:04.174Z,11.38
2018-12-21T16:43:08.289Z,11.36
2018-12-21T16:47:12.400Z,11.43
2018-12-21T16:51:16.533Z,11.43
2018-12-21T16:55:20.629Z,11.54
2018-12-21T16:59:24.816Z,11.53
2018-12-21T17:03:28.891Z,11.54
2018-12-21T17:07:32.989Z,11.64
2018-12-21T17:11:37.167Z,11.70
2018-12-21T17:15:41.318Z,11.68
2018-12-21T17:19:45.403Z,11.65
2018-12-21T17:23:49.534Z,11.73
2018-12-21T17:27:53.730Z,11.65
2018-12-21T17:31:57.838Z,11.74
2018-12-21T17:36:01.985Z,11.84
2018-12-21T17:40:08.024Z,11.96
2018-12-21T17:44:13.170Z,11.89
2018-12-21T17:48:17.508Z,11.92
2018-12-21T17:52:21.635Z,11.90
2018-12-21T17:56:29.890Z,11.99
2018-12-21T18:00:31.817Z,12.00
2018-12-21T18:04:35.953Z,12.11
2018-12-21T18:08:40.066Z,12.11
2018-12-21T18:12:44.177Z,12.05
2018-12-21T18:16:48.287Z,12.07
2018-12-21T18:20:52.405Z,12.08
2018-12-21T18:24:57.506Z,12.10
2018-12-21T18:29:01.813Z,12.16
2018-12-21T18:33:10.473Z,12.13
2018-12-21T18:37:11.965Z,12.09
2018-12-21T18:41:16.109Z,12.10
2018-12-21T18:45:20.196Z,12.05
2018-12-21T18:49:24.315Z,11.92
2018-12-21T18:53:28.393Z,11.82
2018-12-21T18:57:32.498Z,11.83
2018-12-21T19:01:36.613Z,11.76
2018-12-21T19:05:40.730Z,11.73
2018-12-21T19:09:44.810Z,11.66
2018-12-21T19:13:48.901Z,11.66
2018-12-21T19:17:52.998Z,11.75
2018-12-21T19:21:57.265Z,11.71
2018-12-21T19:26:01.434Z,11.66
2018-12-21T19:30:08.139Z,11.71
2018-12-21T19:34:12.267Z,11.73
2018-12-21T19:38:16.406Z,11.77
2018-12-21T19:42:20.502Z,11.90
2018-12-21T19:46:24.598Z,11.87
2018-12-21T19:50:28.678Z,11.90
2018-12-21T19:54:32.847Z,11.80
2018-12-21T19:58:36.975Z,11.79
2018-12-21T20:02:41.649Z,11.89
2018-12-21T20:06:45.714Z,11.96
2018-12-21T20:10:49.865Z,12.06
2018-12-21T20:14:53.958Z,12.10
2018-12-21T20:18:58.049Z,12.04
2018-12-21T20:23:02.191Z,12.16
2018-12-21T20:27:13.385Z,12.10
2018-12-21T20:31:12.421Z,12.09
2018-12-21T20:35:16.523Z,12.12
2018-12-21T20:39:20.611Z,12.22
2018-12-21T20:43:24.733Z,12.24
2018-12-21T20:47:28.810Z,12.33
2018-12-21T20:51:33.126Z,12.30
2018-12-21T20:55:37.288Z,12.21
2018-12-21T20:59:41.541Z,12.16
2018-12-21T21:03:45.614Z,12.27
2018-12-21T21:07:49.730Z,12.32
2018-12-21T21:11:53.834Z,12.40
2018-12-21T21:15:57.933Z,12.28
2018-12-21T21:20:02.134Z,12.29
2018-12-21T21:24:06.226Z,12.21
2018-12-21T21:28:10.313Z,12.29
2018-12-21T21:32:14.418Z,12.24
2018-12-21T21:36:18.515Z,11.94
2018-12-21T21:40:22.596Z,12.06
2018-12-21T21:44:26.698Z,12.05
2018-12-21T21:48:30.784Z,11.99
2018-12-21T21:52:35.618Z,12.00
2018-12-21T21:56:39.760Z,11.97
2018-12-21T22:00:43.842Z,11.82
2018-12-21T22:04:47.967Z,11.87
2018-12-21T22:08:52.083Z,11.94
2018-12-21T22:12:56.247Z,12.03
2018-12-21T22:17:00.454Z,12.00
2018-12-21T22:21:04.541Z,11.98
2018-12-21T22:25:08.646Z,12.17
2018-12-21T22:29:12.724Z,12.33
2018-12-21T22:33:16.909Z,12.17
2018-12-21T22:37:21.022Z,12.03
2018-12-21T22:41:25.189Z,12.05
2018-12-21T22:45:29.289Z,12.05
2018-12-21T22:49:33.385Z,11.93
2018-12-21T22:53:37.477Z,11.88
2018-12-21T22:57:41.589Z,11.80
2018-12-21T23:01:45.682Z,11.76
2018-12-21T23:05:49.840Z,11.72
2018-12-21T23:09:53.955Z,11.78
2018-12-21T23:13:58.033Z,11.81
2018-12-21T23:22:48.836Z,11.90
2018-12-21T23:31:48.605Z,11.77
2018-12-21T23:40:47.012Z,11.65
2018-12-21T23:44:51.110Z,11.73
2018-12-21T23:48:55.192Z,11.73
2018-12-21T23:52:59.365Z,11.76
2018-12-21T23:57:03.680Z,11.73
